Time;durP1;ratioP1;P1;durP2;ratioP2;P2;SDS_P1;SDS_P2;PMS_P1;PMS_P2;Temp;Humidity;BMP_temperature;BMP_pressure;BME280_temperature;BME280_humidity;BME280_pressure;Samples;Min_cycle;Max_cycle;Signal;HPM_P1;HPM_P2
2024/01/22 00:02:14;;;;;;;9.57;6.60;;;6.30;99.90;;;;;;4991003;28;20483;-60
2024/01/22 00:04:42;;;;;;;7.97;6.20;;;6.30;99.90;;;;;;5000608;28;20563;-59
2024/01/22 00:07:10;;;;;;;9.90;6.30;;;6.30;99.90;;;;;;5001369;28;20472;-59
2024/01/22 00:09:38;;;;;;;9.17;6.13;;;6.30;99.90;;;;;;5000741;28;20491;-60
2024/01/22 00:12:07;;;;;;;12.07;6.53;;;6.30;99.90;;;;;;4994275;28;20489;-60
2024/01/22 00:14:35;;;;;;;9.07;7.27;;;6.20;99.90;;;;;;4997649;28;20479;-57
2024/01/22 00:17:04;;;;;;;9.43;6.30;;;6.20;99.90;;;;;;4997774;28;20638;-58
2024/01/22 00:19:33;;;;;;;9.23;6.77;;;6.20;99.90;;;;;;4999266;28;21604;-58
2024/01/22 00:22:01;;;;;;;8.93;6.17;;;6.10;99.90;;;;;;4994814;28;20515;-60
2024/01/22 00:24:28;;;;;;;7.73;6.43;;;6.10;99.90;;;;;;4992512;28;20558;-60
2024/01/22 00:26:56;;;;;;;11.57;6.10;;;6.10;99.90;;;;;;4992966;28;20566;-60
2024/01/22 00:29:24;;;;;;;7.03;6.00;;;6.10;99.90;;;;;;4997102;28;20498;-60
2024/01/22 00:31:52;;;;;;;9.00;6.03;;;6.10;99.90;;;;;;4989936;28;20579;-60
2024/01/22 00:34:22;;;;;;;7.60;5.97;;;6.10;99.90;;;;;;4989500;28;20902;-59
2024/01/22 00:36:50;;;;;;;10.67;6.70;;;6.10;99.90;;;;;;4990622;28;20499;-60
2024/01/22 00:39:18;;;;;;;9.47;6.07;;;6.10;99.90;;;;;;4994143;28;20617;-60
2024/01/22 00:41:46;;;;;;;9.97;6.13;;;6.10;99.90;;;;;;4991619;28;21456;-59
2024/01/22 00:44:14;;;;;;;8.30;6.10;;;6.00;99.90;;;;;;4993892;28;20553;-59
2024/01/22 00:46:42;;;;;;;10.33;6.83;;;6.00;99.90;;;;;;4995574;28;20932;-60
2024/01/22 00:49:10;;;;;;;9.53;6.23;;;6.00;99.90;;;;;;4993098;28;21189;-60
2024/01/22 00:51:39;;;;;;;9.10;6.73;;;6.00;99.90;;;;;;4997604;28;20508;-60
2024/01/22 00:54:07;;;;;;;8.37;6.70;;;5.90;99.90;;;;;;4991950;28;20996;-58
2024/01/22 00:56:35;;;;;;;10.00;8.20;;;5.90;99.90;;;;;;4998458;28;20491;-60
2024/01/22 00:59:03;;;;;;;8.43;6.70;;;5.90;99.90;;;;;;4998528;28;20768;-59
2024/01/22 01:01:32;;;;;;;12.33;7.70;;;5.90;99.90;;;;;;4994877;28;20571;-60
2024/01/22 01:04:00;;;;;;;8.20;6.43;;;5.90;99.90;;;;;;4996148;28;20484;-60
2024/01/22 01:06:28;;;;;;;9.20;6.70;;;5.90;99.90;;;;;;4996166;28;20472;-60
2024/01/22 01:08:58;;;;;;;10.03;6.77;;;5.90;99.90;;;;;;4994981;28;20473;-59
2024/01/22 01:11:26;;;;;;;10.80;7.13;;;5.90;99.90;;;;;;4991275;28;20504;-60
2024/01/22 01:13:54;;;;;;;9.67;6.40;;;5.80;99.90;;;;;;4996924;28;20469;-60
2024/01/22 01:16:22;;;;;;;7.37;5.80;;;5.80;99.90;;;;;;4997059;28;20488;-60
2024/01/22 01:18:50;;;;;;;10.83;6.90;;;5.90;99.90;;;;;;4994355;28;20480;-60
2024/01/22 01:21:22;;;;;;;11.53;6.90;;;5.90;99.90;;;;;;4993467;28;20802;-58
2024/01/22 01:23:50;;;;;;;8.10;6.40;;;5.90;99.90;;;;;;4995580;28;20470;-60
2024/01/22 01:26:20;;;;;;;8.40;6.73;;;5.90;99.90;;;;;;4997513;28;20543;-59
2024/01/22 01:28:48;;;;;;;8.37;6.70;;;6.00;99.90;;;;;;4996062;28;20549;-60
2024/01/22 01:31:18;;;;;;;11.07;7.40;;;6.00;99.90;;;;;;4995258;28;20499;-59
2024/01/22 01:33:46;;;;;;;9.00;6.10;;;6.00;99.90;;;;;;4996705;28;21017;-59
2024/01/22 01:36:14;;;;;;;8.87;6.10;;;6.00;99.90;;;;;;4996113;28;20491;-60
2024/01/22 01:38:42;;;;;;;7.00;6.10;;;6.00;99.90;;;;;;4990882;28;20844;-60
2024/01/22 01:41:10;;;;;;;7.63;6.40;;;6.00;99.90;;;;;;4990570;28;20503;-59
2024/01/22 01:43:40;;;;;;;10.27;6.60;;;6.00;99.90;;;;;;4992005;28;20975;-59
2024/01/22 01:46:08;;;;;;;7.73;6.93;;;6.00;99.90;;;;;;4989462;28;20477;-60
2024/01/22 01:48:37;;;;;;;7.10;6.23;;;6.00;99.90;;;;;;4990474;28;20996;-59
2024/01/22 01:51:06;;;;;;;7.67;6.00;;;6.00;99.90;;;;;;4998514;28;21028;-59
2024/01/22 01:53:34;;;;;;;7.90;5.33;;;6.10;99.90;;;;;;5012504;28;20601;-59
2024/01/22 01:56:02;;;;;;;7.40;5.80;;;6.10;99.90;;;;;;5011071;28;20562;-60
2024/01/22 01:58:30;;;;;;;7.83;6.23;;;6.10;99.90;;;;;;5012428;28;20495;-59
2024/01/22 02:01:02;;;;;;;7.47;5.47;;;6.20;99.90;;;;;;5008953;28;20521;-60
2024/01/22 02:03:30;;;;;;;8.93;6.33;;;6.20;99.90;;;;;;5005826;28;20514;-60
2024/01/22 02:05:58;;;;;;;5.97;5.23;;;6.20;99.90;;;;;;5010350;28;20494;-60
2024/01/22 02:08:26;;;;;;;8.07;6.40;;;6.20;99.90;;;;;;5014896;28;20554;-59
2024/01/22 02:10:54;;;;;;;6.67;5.53;;;6.30;99.90;;;;;;5012195;28;20578;-60
2024/01/22 02:13:24;;;;;;;7.17;5.60;;;6.30;99.90;;;;;;5015650;28;21009;-60
2024/01/22 02:15:52;;;;;;;6.53;5.17;;;6.30;99.90;;;;;;5012821;28;20979;-58
2024/01/22 02:18:22;;;;;;;5.93;5.23;;;6.30;99.90;;;;;;5015365;28;20586;-59
2024/01/22 02:20:50;;;;;;;6.30;5.20;;;6.30;99.90;;;;;;4995797;28;21124;-59
2024/01/22 02:23:19;;;;;;;6.50;5.43;;;6.30;99.90;;;;;;4985830;28;20468;-59
2024/01/22 02:25:47;;;;;;;7.83;5.37;;;6.30;99.90;;;;;;4983466;28;20654;-59
2024/01/22 02:28:15;;;;;;;6.70;4.77;;;6.40;99.90;;;;;;4987524;28;20463;-58
2024/01/22 02:30:43;;;;;;;6.03;5.43;;;6.40;99.90;;;;;;4994724;28;20664;-58
2024/01/22 02:33:11;;;;;;;6.80;5.77;;;6.40;99.90;;;;;;5012894;28;21137;-59
2024/01/22 02:35:39;;;;;;;6.50;5.30;;;6.40;99.90;;;;;;5011605;28;20463;-59
2024/01/22 02:38:12;;;;;;;5.90;5.30;;;6.40;99.90;;;;;;5014573;28;20499;-58
2024/01/22 02:40:41;;;;;;;6.53;5.00;;;6.40;99.90;;;;;;5015978;28;20494;-59
2024/01/22 02:43:09;;;;;;;5.93;5.33;;;6.50;99.90;;;;;;5010781;28;20479;-59
2024/01/22 02:45:37;;;;;;;5.43;4.77;;;6.50;99.90;;;;;;5012668;28;20510;-59
2024/01/22 02:48:06;;;;;;;5.67;4.80;;;6.50;99.90;;;;;;5011658;28;20530;-60
2024/01/22 02:50:34;;;;;;;7.17;4.70;;;6.50;99.90;;;;;;5009283;28;20592;-59
2024/01/22 02:53:02;;;;;;;8.10;4.93;;;6.60;99.90;;;;;;5009368;28;20482;-60
2024/01/22 02:55:30;;;;;;;5.40;4.60;;;6.60;99.90;;;;;;5012198;28;20476;-60
2024/01/22 02:58:00;;;;;;;8.77;4.23;;;6.60;99.90;;;;;;5009685;28;20503;-59
2024/01/22 03:00:28;;;;;;;4.63;3.80;;;6.60;99.90;;;;;;5012093;28;20499;-59
2024/01/22 03:02:56;;;;;;;8.00;4.60;;;6.70;99.90;;;;;;5013794;28;20503;-59
2024/01/22 03:05:24;;;;;;;6.00;4.07;;;6.70;99.90;;;;;;5012602;28;20573;-60
2024/01/22 03:07:52;;;;;;;6.10;4.90;;;6.80;99.90;;;;;;5014009;28;20551;-59
2024/01/22 03:10:20;;;;;;;5.87;4.33;;;6.80;99.90;;;;;;5017001;28;21024;-58
2024/01/22 03:12:48;;;;;;;5.07;4.20;;;6.80;99.90;;;;;;5009156;28;20615;-59
2024/01/22 03:15:17;;;;;;;4.93;4.53;;;6.80;99.90;;;;;;5014428;28;22002;-60
2024/01/22 03:17:46;;;;;;;5.63;4.60;;;6.80;99.90;;;;;;5012298;28;20501;-60
2024/01/22 03:20:14;;;;;;;4.40;3.60;;;6.90;99.90;;;;;;5012924;28;20483;-58
2024/01/22 03:22:42;;;;;;;5.93;3.90;;;6.90;99.90;;;;;;5014696;28;20563;-59
2024/01/22 03:25:14;;;;;;;4.47;3.67;;;6.90;99.90;;;;;;5013104;28;20475;-59
2024/01/22 03:27:42;;;;;;;4.47;3.83;;;6.90;99.90;;;;;;5014750;28;20466;-60
2024/01/22 03:30:11;;;;;;;5.30;3.70;;;6.90;99.90;;;;;;5010088;28;20491;-59
2024/01/22 03:32:41;;;;;;;6.30;3.67;;;6.90;99.90;;;;;;5008650;28;20463;-59
2024/01/22 03:35:09;;;;;;;4.40;4.00;;;6.90;99.90;;;;;;5009560;28;21086;-59
2024/01/22 03:37:37;;;;;;;4.60;4.20;;;7.00;99.90;;;;;;5013718;28;20505;-59
2024/01/22 03:40:07;;;;;;;4.57;4.10;;;6.90;99.90;;;;;;5007268;28;20490;-59
2024/01/22 03:42:35;;;;;;;5.80;4.13;;;7.00;99.90;;;;;;5014533;28;20493;-59
2024/01/22 03:45:03;;;;;;;4.10;3.47;;;7.00;99.90;;;;;;5008355;28;20511;-59
2024/01/22 03:47:31;;;;;;;4.07;3.60;;;7.00;99.90;;;;;;5013144;28;20642;-59
2024/01/22 03:50:03;;;;;;;4.70;3.90;;;7.00;99.90;;;;;;5012314;28;20792;-60
2024/01/22 03:52:31;;;;;;;4.50;3.67;;;7.00;99.90;;;;;;5013081;28;20475;-60
2024/01/22 03:54:59;;;;;;;3.93;3.53;;;7.00;99.90;;;;;;5016927;28;20471;-59
2024/01/22 03:57:27;;;;;;;4.70;3.43;;;7.00;99.90;;;;;;5016456;28;20472;-59
2024/01/22 03:59:55;;;;;;;5.13;3.67;;;7.00;99.90;;;;;;5009586;28;21459;-59
2024/01/22 04:02:24;;;;;;;5.47;3.80;;;7.10;99.90;;;;;;5013410;28;20478;-59
2024/01/22 04:04:53;;;;;;;4.13;3.20;;;7.10;99.90;;;;;;5016871;28;20797;-58
2024/01/22 04:07:23;;;;;;;5.43;3.73;;;7.10;99.90;;;;;;5010246;28;20469;-59
2024/01/22 04:09:50;;;;;;;4.00;3.13;;;7.20;99.90;;;;;;5003440;28;20515;-59
2024/01/22 04:12:18;;;;;;;3.43;3.07;;;7.20;99.90;;;;;;5014632;28;20466;-60
2024/01/22 04:14:48;;;;;;;3.70;3.40;;;7.20;99.90;;;;;;5012387;28;20475;-59
2024/01/22 04:17:17;;;;;;;5.60;3.80;;;7.20;99.90;;;;;;5011116;28;20475;-59
2024/01/22 04:19:45;;;;;;;4.43;3.50;;;7.20;99.90;;;;;;5015564;28;20844;-59
2024/01/22 04:22:13;;;;;;;5.67;3.37;;;7.20;99.90;;;;;;5013727;28;20527;-60
2024/01/22 04:24:42;;;;;;;4.70;3.30;;;7.20;99.90;;;;;;5011932;28;20573;-59
2024/01/22 04:27:11;;;;;;;4.13;3.00;;;7.20;99.90;;;;;;5017120;28;20503;-59
2024/01/22 04:29:39;;;;;;;4.07;3.20;;;7.20;99.90;;;;;;5014877;28;20961;-60
2024/01/22 04:32:07;;;;;;;4.90;3.30;;;7.20;99.90;;;;;;5014495;28;20487;-59
2024/01/22 04:34:37;;;;;;;3.43;2.87;;;7.20;99.90;;;;;;5018143;28;20466;-59
2024/01/22 04:37:05;;;;;;;6.67;3.43;;;7.20;99.90;;;;;;5015305;28;20482;-58
2024/01/22 04:39:34;;;;;;;6.80;3.40;;;7.20;99.90;;;;;;5015917;28;20954;-60
2024/01/22 04:42:03;;;;;;;3.73;2.87;;;7.20;99.90;;;;;;5013668;28;20491;-58
2024/01/22 04:44:31;;;;;;;4.30;2.93;;;7.20;99.90;;;;;;5018672;28;20849;-59
2024/01/22 04:47:01;;;;;;;5.33;3.47;;;7.20;99.90;;;;;;5013655;28;21767;-59
2024/01/22 04:49:29;;;;;;;3.30;3.00;;;7.20;99.90;;;;;;5018527;28;20496;-59
2024/01/22 04:51:57;;;;;;;4.03;3.27;;;7.20;99.90;;;;;;5018404;28;20495;-59
2024/01/22 04:54:25;;;;;;;4.50;3.40;;;7.20;99.90;;;;;;5016517;28;20558;-59
2024/01/22 04:56:54;;;;;;;3.77;3.27;;;7.20;99.90;;;;;;5016397;28;20564;-59
2024/01/22 04:59:25;;;;;;;4.33;3.17;;;7.20;99.90;;;;;;5014464;28;21183;-59
2024/01/22 05:01:53;;;;;;;4.73;3.30;;;7.20;99.90;;;;;;5017271;28;20483;-59
2024/01/22 05:04:21;;;;;;;3.73;2.87;;;7.20;99.90;;;;;;5019726;28;20913;-59
2024/01/22 05:06:49;;;;;;;3.80;3.40;;;7.20;99.90;;;;;;5018436;28;20476;-59
2024/01/22 05:09:17;;;;;;;3.27;2.90;;;7.20;99.90;;;;;;5012329;28;20548;-60
2024/01/22 05:11:46;;;;;;;3.93;2.70;;;7.20;99.90;;;;;;5016085;28;20495;-60
2024/01/22 05:14:14;;;;;;;3.97;3.10;;;7.20;99.90;;;;;;5017884;28;20530;-59
2024/01/22 05:16:43;;;;;;;3.80;3.27;;;7.20;99.90;;;;;;5014050;28;20514;-59
2024/01/22 05:19:11;;;;;;;3.57;3.20;;;7.10;99.90;;;;;;5012075;28;20499;-59
2024/01/22 05:21:39;;;;;;;4.00;3.50;;;7.20;99.90;;;;;;5013070;28;20884;-59
2024/01/22 05:24:08;;;;;;;4.87;3.07;;;7.20;99.90;;;;;;5015670;28;20481;-59
2024/01/22 05:26:36;;;;;;;3.37;2.87;;;7.20;99.90;;;;;;5013348;28;20486;-59
2024/01/22 05:29:04;;;;;;;3.80;2.90;;;7.30;99.90;;;;;;5016312;28;20499;-59
2024/01/22 05:31:32;;;;;;;4.93;4.40;;;7.30;99.90;;;;;;5016394;28;20617;-59
2024/01/22 05:34:01;;;;;;;5.27;3.17;;;7.30;99.90;;;;;;5016064;28;20475;-59
2024/01/22 05:36:29;;;;;;;4.30;3.20;;;7.40;99.90;;;;;;5018315;28;20500;-59
2024/01/22 05:38:57;;;;;;;3.27;3.00;;;7.40;99.90;;;;;;5011407;28;20494;-59
2024/01/22 05:41:25;;;;;;;3.20;2.93;;;7.40;99.90;;;;;;5008248;28;20908;-59
2024/01/22 05:43:53;;;;;;;3.00;2.53;;;7.50;99.90;;;;;;5018004;28;20467;-59
2024/01/22 05:46:21;;;;;;;2.87;2.67;;;7.60;99.90;;;;;;5011632;28;20479;-58
2024/01/22 05:48:49;;;;;;;3.87;2.97;;;7.60;99.90;;;;;;5013887;28;20964;-59
2024/01/22 05:51:19;;;;;;;2.80;2.60;;;7.70;99.90;;;;;;5014094;28;20495;-59
2024/01/22 05:53:48;;;;;;;2.70;2.33;;;7.70;99.90;;;;;;5009633;28;20479;-59
2024/01/22 05:56:22;;;;;;;3.87;2.90;;;7.80;99.90;;;;;;5011018;28;20479;-59
2024/01/22 05:58:50;;;;;;;2.80;2.43;;;7.80;99.90;;;;;;5008488;28;20492;-59
2024/01/22 06:01:21;;;;;;;2.60;2.37;;;7.80;99.90;;;;;;5012236;28;20498;-59
2024/01/22 06:03:49;;;;;;;2.63;2.23;;;7.90;99.90;;;;;;5008461;28;20476;-59
2024/01/22 06:06:20;;;;;;;3.93;2.50;;;8.00;99.90;;;;;;5014687;28;20879;-59
2024/01/22 06:08:50;;;;;;;2.80;2.60;;;8.00;99.90;;;;;;5013786;28;20538;-60
2024/01/22 06:11:19;;;;;;;2.33;2.13;;;8.00;99.90;;;;;;5011838;28;20494;-59
2024/01/22 06:13:47;;;;;;;2.93;2.07;;;8.10;99.90;;;;;;5012229;28;20490;-59
2024/01/22 06:16:28;;;;;;;4.80;2.43;;;8.10;99.90;;;;;;5014788;28;20979;-62
2024/01/22 06:18:56;;;;;;;2.50;2.30;;;8.10;99.90;;;;;;5002791;28;20492;-59
2024/01/22 06:21:27;;;;;;;2.00;1.90;;;8.20;99.90;;;;;;4986586;28;20575;-59
2024/01/22 06:23:55;;;;;;;1.87;1.73;;;8.20;99.90;;;;;;4978434;28;20476;-59
2024/01/22 06:26:23;;;;;;;4.23;2.30;;;8.30;99.90;;;;;;4987168;28;20476;-57
2024/01/22 06:28:52;;;;;;;2.50;2.07;;;8.40;99.90;;;;;;4988115;28;20488;-58
2024/01/22 06:31:21;;;;;;;2.17;2.07;;;8.40;99.90;;;;;;4985692;28;20497;-57
2024/01/22 06:33:49;;;;;;;3.67;2.30;;;8.50;99.90;;;;;;4986251;28;20981;-56
2024/01/22 06:36:17;;;;;;;2.37;2.17;;;8.50;99.90;;;;;;4982776;28;21842;-57
2024/01/22 06:38:46;;;;;;;3.10;2.50;;;8.60;99.90;;;;;;4986352;28;20472;-56
2024/01/22 06:41:15;;;;;;;2.20;2.10;;;8.70;99.90;;;;;;4976944;28;20487;-56
2024/01/22 06:43:43;;;;;;;2.00;1.80;;;8.70;99.90;;;;;;4985677;28;21188;-56
2024/01/22 06:46:12;;;;;;;2.30;2.10;;;8.70;99.90;;;;;;4965259;28;20468;-56
2024/01/22 06:48:40;;;;;;;2.37;2.17;;;8.80;99.90;;;;;;4978358;28;21259;-57
2024/01/22 06:51:11;;;;;;;2.23;2.13;;;8.90;99.90;;;;;;4977050;28;21263;-57
2024/01/22 06:53:39;;;;;;;2.17;1.97;;;8.80;99.90;;;;;;4985077;28;20768;-56
2024/01/22 06:56:09;;;;;;;2.33;2.00;;;8.90;99.90;;;;;;4983335;28;20477;-56
2024/01/22 06:58:38;;;;;;;2.10;1.97;;;8.90;99.90;;;;;;4988868;28;20605;-56
2024/01/22 07:01:07;;;;;;;2.27;2.17;;;9.00;99.90;;;;;;4982345;28;20939;-57
2024/01/22 07:03:36;;;;;;;3.73;2.00;;;9.10;99.90;;;;;;4988271;28;20481;-57
2024/01/22 07:06:05;;;;;;;1.83;1.73;;;9.10;99.90;;;;;;4990641;28;20861;-57
2024/01/22 07:08:33;;;;;;;3.00;2.00;;;9.10;99.90;;;;;;4989568;28;20990;-57
2024/01/22 07:11:01;;;;;;;2.00;1.80;;;9.20;99.90;;;;;;4990220;28;20488;-56
2024/01/22 07:13:30;;;;;;;1.40;1.30;;;9.20;99.90;;;;;;4990261;28;20472;-57
2024/01/22 07:15:59;;;;;;;1.63;1.53;;;9.30;99.90;;;;;;4985064;28;20468;-55
2024/01/22 07:18:27;;;;;;;1.73;1.63;;;9.30;99.90;;;;;;4990371;28;20542;-57
2024/01/22 07:20:55;;;;;;;2.00;1.80;;;9.30;99.90;;;;;;4990207;28;20499;-56
2024/01/22 07:23:23;;;;;;;2.40;1.67;;;9.40;99.90;;;;;;4989295;28;21043;-56
2024/01/22 07:25:51;;;;;;;1.63;1.53;;;9.50;99.90;;;;;;4992214;28;20468;-57
2024/01/22 07:28:19;;;;;;;1.50;1.40;;;9.50;99.90;;;;;;4985382;28;20527;-57
2024/01/22 07:30:48;;;;;;;1.90;1.70;;;9.50;99.90;;;;;;4992701;28;20521;-57
2024/01/22 07:33:16;;;;;;;1.60;1.50;;;9.50;99.90;;;;;;4985143;28;20491;-57
2024/01/22 07:35:44;;;;;;;2.40;1.73;;;9.60;99.90;;;;;;4985120;28;20566;-56
2024/01/22 07:38:13;;;;;;;1.83;1.73;;;9.60;99.90;;;;;;4990274;28;20908;-57
2024/01/22 07:40:41;;;;;;;1.80;1.70;;;9.60;99.90;;;;;;4987195;28;21090;-57
2024/01/22 07:43:09;;;;;;;2.10;1.90;;;9.60;99.90;;;;;;4985749;28;20472;-56
2024/01/22 07:45:37;;;;;;;1.70;1.60;;;9.70;99.90;;;;;;4984754;28;20471;-55
2024/01/22 07:48:07;;;;;;;1.37;1.27;;;9.70;99.90;;;;;;4986669;28;20476;-56
2024/01/22 07:50:36;;;;;;;1.93;1.83;;;9.70;99.90;;;;;;4987822;28;20475;-56
2024/01/22 07:53:04;;;;;;;1.90;1.80;;;9.70;99.90;;;;;;4981471;28;21440;-56
2024/01/22 07:55:33;;;;;;;2.60;1.80;;;9.70;99.90;;;;;;4994297;28;20927;-57
2024/01/22 07:58:01;;;;;;;2.77;2.13;;;9.70;99.90;;;;;;4992975;28;21040;-57
2024/01/22 08:00:29;;;;;;;1.90;1.80;;;9.80;99.90;;;;;;4996672;28;20601;-57
2024/01/22 08:02:57;;;;;;;2.30;2.10;;;9.70;99.90;;;;;;4991557;28;20473;-56
2024/01/22 08:05:26;;;;;;;2.40;2.23;;;9.70;99.90;;;;;;4999600;28;20906;-57
2024/01/22 08:07:54;;;;;;;2.10;1.90;;;9.70;99.90;;;;;;4998873;28;20504;-57
2024/01/22 08:10:25;;;;;;;2.13;1.90;;;9.70;99.90;;;;;;4993756;28;20625;-57
2024/01/22 08:12:53;;;;;;;2.20;1.90;;;9.70;99.90;;;;;;4980812;28;20476;-57
2024/01/22 08:15:22;;;;;;;2.10;1.90;;;9.70;99.90;;;;;;4978062;28;20481;-57
2024/01/22 08:17:50;;;;;;;2.17;2.00;;;9.70;99.90;;;;;;4977420;28;20488;-57
2024/01/22 08:20:18;;;;;;;2.00;1.90;;;9.70;99.90;;;;;;4985700;28;20497;-57
2024/01/22 08:22:49;;;;;;;2.30;2.20;;;9.70;99.90;;;;;;4990273;28;20490;-57
2024/01/22 08:25:19;;;;;;;2.27;2.17;;;9.60;99.90;;;;;;4995650;28;20472;-56
2024/01/22 08:27:48;;;;;;;3.30;2.17;;;9.60;99.90;;;;;;4985572;28;20551;-56
2024/01/22 08:30:16;;;;;;;2.33;2.13;;;9.60;99.90;;;;;;4988219;28;21068;-57
2024/01/22 08:32:44;;;;;;;2.87;2.53;;;9.60;99.90;;;;;;4978269;28;20477;-57
2024/01/22 08:35:13;;;;;;;2.77;2.57;;;9.60;99.90;;;;;;4980661;28;20476;-57
2024/01/22 08:37:41;;;;;;;3.10;2.80;;;9.60;99.90;;;;;;4982370;28;20467;-57
2024/01/22 08:40:12;;;;;;;3.10;2.90;;;9.60;99.90;;;;;;4980802;28;21000;-56
2024/01/22 08:42:40;;;;;;;3.00;2.77;;;9.50;99.90;;;;;;4983087;28;21074;-57
2024/01/22 08:45:08;;;;;;;2.90;2.70;;;9.50;99.90;;;;;;4985669;28;20563;-57
2024/01/22 08:47:36;;;;;;;3.43;3.17;;;9.50;99.90;;;;;;4993664;28;20984;-57
2024/01/22 08:50:05;;;;;;;3.20;2.80;;;9.50;99.90;;;;;;4994402;28;20503;-57
2024/01/22 08:52:33;;;;;;;3.70;3.40;;;9.50;99.90;;;;;;4992821;28;20560;-57
2024/01/22 08:55:02;;;;;;;3.40;3.20;;;9.50;99.90;;;;;;4989615;28;20472;-57
2024/01/22 08:57:32;;;;;;;3.37;3.13;;;9.60;99.90;;;;;;4993357;28;20483;-57
2024/01/22 09:00:00;;;;;;;3.53;2.87;;;9.60;99.90;;;;;;4990991;28;20932;-59
2024/01/22 09:02:28;;;;;;;3.70;3.40;;;9.60;99.90;;;;;;4993545;28;20488;-59
2024/01/22 09:04:56;;;;;;;3.60;3.30;;;9.60;99.90;;;;;;4995414;28;20526;-59
2024/01/22 09:07:24;;;;;;;5.23;3.47;;;9.70;99.90;;;;;;4994765;28;21112;-59
2024/01/22 09:09:52;;;;;;;3.47;3.17;;;9.70;99.90;;;;;;4991313;28;20628;-58
2024/01/22 09:12:20;;;;;;;3.30;3.00;;;9.70;99.90;;;;;;4990272;28;20964;-59
2024/01/22 09:14:50;;;;;;;3.60;3.30;;;9.80;99.90;;;;;;4992378;28;20475;-59
2024/01/22 09:17:20;;;;;;;3.40;3.13;;;9.70;99.90;;;;;;4990288;28;20476;-59
2024/01/22 09:19:49;;;;;;;4.37;3.57;;;9.80;99.90;;;;;;4987698;28;20490;-57
2024/01/22 09:22:19;;;;;;;3.87;3.57;;;9.80;99.90;;;;;;4993707;28;20505;-59
2024/01/22 09:24:47;;;;;;;3.80;3.50;;;9.80;99.90;;;;;;4996100;28;20558;-59
2024/01/22 09:27:15;;;;;;;4.13;3.10;;;9.80;99.90;;;;;;4986003;28;20909;-59
2024/01/22 09:29:43;;;;;;;3.60;3.30;;;9.80;99.90;;;;;;4991199;28;21102;-61
2024/01/22 09:32:14;;;;;;;3.60;3.30;;;9.80;99.90;;;;;;4992380;28;20488;-58
2024/01/22 09:34:42;;;;;;;3.50;2.80;;;9.90;99.90;;;;;;4992454;28;20563;-59
2024/01/22 09:37:11;;;;;;;3.50;3.13;;;9.90;99.90;;;;;;4990760;28;21610;-65
2024/01/22 09:39:39;;;;;;;3.23;2.93;;;9.90;99.90;;;;;;4983181;28;21272;-59
2024/01/22 09:42:07;;;;;;;3.83;3.00;;;10.00;99.90;;;;;;5010296;28;21630;-59
2024/01/22 09:44:36;;;;;;;4.37;3.23;;;10.00;99.90;;;;;;5013303;28;21214;-57
2024/01/22 09:47:04;;;;;;;4.40;3.63;;;10.00;99.90;;;;;;5012628;28;20558;-57
2024/01/22 09:49:34;;;;;;;4.47;3.40;;;10.00;99.90;;;;;;5013702;28;20570;-58
2024/01/22 09:52:03;;;;;;;3.50;2.93;;;10.00;99.90;;;;;;4992773;28;20591;-57
2024/01/22 09:54:31;;;;;;;3.60;3.30;;;10.00;99.90;;;;;;4993209;28;21147;-57
2024/01/22 09:57:02;;;;;;;3.60;3.30;;;10.10;99.90;;;;;;4982544;28;20477;-57
2024/01/22 09:59:30;;;;;;;3.53;3.23;;;10.10;99.90;;;;;;4992996;28;20587;-57
2024/01/22 10:01:59;;;;;;;5.23;3.30;;;10.10;99.90;;;;;;4994276;28;20492;-57
2024/01/22 10:04:27;;;;;;;4.23;3.30;;;10.10;99.90;;;;;;4994054;28;20539;-57
2024/01/22 10:06:57;;;;;;;3.33;3.13;;;10.10;99.90;;;;;;4994939;28;20472;-57
2024/01/22 10:09:25;;;;;;;3.97;3.30;;;10.10;99.90;;;;;;4992398;28;20507;-56
2024/01/22 10:11:53;;;;;;;4.50;3.30;;;10.10;99.90;;;;;;4991256;28;20901;-56
2024/01/22 10:14:30;;;;;;;4.00;3.60;;;10.10;99.90;;;;;;4989933;28;20474;-57
2024/01/22 10:17:14;;;;;;;4.27;3.70;;;10.10;99.90;;;;;;4990883;28;20500;-57
2024/01/22 10:19:42;;;;;;;3.77;3.47;;;10.10;99.90;;;;;;4992895;28;20617;-57
2024/01/22 10:22:12;;;;;;;4.30;3.90;;;10.10;99.90;;;;;;4993461;28;21396;-57
2024/01/22 10:24:41;;;;;;;3.70;3.40;;;10.10;99.90;;;;;;4990526;28;21259;-56
2024/01/22 10:27:15;;;;;;;5.23;4.07;;;10.00;99.90;;;;;;4990338;28;21138;-57
2024/01/22 10:29:44;;;;;;;4.60;3.90;;;10.00;99.90;;;;;;4996046;28;20492;-56
2024/01/22 10:32:13;;;;;;;4.30;3.90;;;10.00;99.90;;;;;;4993326;28;20494;-57
2024/01/22 10:34:46;;;;;;;6.00;3.93;;;10.00;99.90;;;;;;4989741;28;20595;-56
2024/01/22 10:37:16;;;;;;;4.50;4.10;;;10.10;99.90;;;;;;4990834;28;20475;-56
2024/01/22 10:39:46;;;;;;;5.57;3.20;;;10.10;99.90;;;;;;4991593;28;20631;-56
2024/01/22 10:42:17;;;;;;;4.80;2.73;;;10.00;99.90;;;;;;4991534;28;20906;-57
2024/01/22 10:44:47;;;;;;;3.10;2.10;;;10.00;99.90;;;;;;4992030;28;20484;-60
2024/01/22 10:47:16;;;;;;;3.63;1.60;;;10.00;99.90;;;;;;4991161;28;20484;-58
2024/01/22 10:49:46;;;;;;;4.60;1.50;;;9.90;99.90;;;;;;4989451;28;20496;-58
2024/01/22 10:52:20;;;;;;;4.60;1.70;;;9.80;99.90;;;;;;4985530;28;20981;-58
2024/01/22 10:54:48;;;;;;;4.70;1.97;;;9.80;99.90;;;;;;4991393;28;20460;-58
2024/01/22 10:57:20;;;;;;;6.20;2.80;;;9.70;99.90;;;;;;4992751;28;20555;-58
2024/01/22 10:59:49;;;;;;;5.23;1.60;;;9.70;99.90;;;;;;4991899;28;20894;-58
2024/01/22 11:02:23;;;;;;;3.60;1.57;;;9.70;99.90;;;;;;4994941;28;20516;-57
2024/01/22 11:04:59;;;;;;;4.83;1.40;;;9.60;99.90;;;;;;4991489;28;20483;-57
2024/01/22 11:07:33;;;;;;;2.77;1.67;;;9.50;99.90;;;;;;4994898;28;20468;-58
2024/01/22 11:10:03;;;;;;;5.97;1.83;;;9.50;99.90;;;;;;4991153;28;20498;-58
2024/01/22 11:12:35;;;;;;;4.70;1.83;;;9.50;99.90;;;;;;4993443;28;20496;-58
2024/01/22 11:15:04;;;;;;;3.93;1.80;;;9.50;99.90;;;;;;4992383;28;20537;-58
2024/01/22 11:17:32;;;;;;;8.67;2.70;;;9.50;99.90;;;;;;4989619;28;21245;-58
2024/01/22 11:20:14;;;;;;;6.60;2.17;;;9.40;99.90;;;;;;4993679;28;21033;-58
2024/01/22 11:22:58;;;;;;;7.00;2.03;;;9.40;99.90;;;;;;4996335;28;21004;-58
2024/01/22 11:25:26;;;;;;;4.37;1.70;;;9.40;99.90;;;;;;4997010;28;20992;-58
2024/01/22 11:28:02;;;;;;;3.57;1.70;;;9.40;99.90;;;;;;4994279;28;20477;-58
2024/01/22 11:30:35;;;;;;;4.90;1.90;;;9.50;99.90;;;;;;5001980;28;21015;-57
2024/01/22 11:33:32;;;;;;;6.47;2.23;;;9.60;99.90;;;;;;5016790;28;20468;-58
2024/01/22 11:36:01;;;;;;;5.37;2.10;;;9.60;99.90;;;;;;5021049;28;20566;-58
2024/01/22 11:38:53;;;;;;;7.30;2.30;;;9.60;99.90;;;;;;5015031;28;20844;-58
2024/01/22 11:41:32;;;;;;;6.43;2.87;;;9.70;99.90;;;;;;5015796;28;20498;-59
2024/01/22 11:44:01;;;;;;;5.90;2.17;;;9.70;99.90;;;;;;5015009;28;20482;-58
2024/01/22 11:46:29;;;;;;;7.67;2.60;;;9.70;99.90;;;;;;5017650;28;20480;-59
2024/01/22 11:49:09;;;;;;;9.53;2.70;;;9.70;99.90;;;;;;5020483;28;20866;-59
2024/01/22 11:51:37;;;;;;;6.30;2.53;;;9.70;99.90;;;;;;5017181;28;21559;-58
2024/01/22 11:54:08;;;;;;;6.10;1.90;;;9.80;99.90;;;;;;5019654;28;20488;-59
2024/01/22 11:56:37;;;;;;;8.33;2.73;;;9.80;99.90;;;;;;5018308;28;20463;-58
2024/01/22 11:59:05;;;;;;;9.60;3.03;;;9.80;99.90;;;;;;5020087;28;20472;-56
2024/01/22 12:01:33;;;;;;;8.33;2.20;;;9.80;99.90;;;;;;5014222;28;20498;-58
2024/01/22 12:04:09;;;;;;;8.73;2.63;;;9.80;99.90;;;;;;5019604;28;20550;-57
2024/01/22 12:06:49;;;;;;;13.13;3.00;;;9.70;99.90;;;;;;5013879;28;20474;-57
2024/01/22 12:09:19;;;;;;;7.90;2.70;;;9.70;99.90;;;;;;5012106;28;20954;-57
2024/01/22 12:11:51;;;;;;;6.53;2.50;;;9.60;99.90;;;;;;5009222;28;20721;-58
2024/01/22 12:14:20;;;;;;;7.70;2.47;;;9.70;99.90;;;;;;5013987;28;20467;-58
2024/01/22 12:16:48;;;;;;;3.80;2.27;;;9.70;99.90;;;;;;5012939;28;20529;-58
2024/01/22 12:19:16;;;;;;;6.70;2.63;;;9.70;99.90;;;;;;5016920;28;20468;-58
2024/01/22 12:21:44;;;;;;;10.50;2.80;;;9.70;99.90;;;;;;5016582;28;20980;-58
2024/01/22 12:24:14;;;;;;;8.00;2.40;;;9.70;99.90;;;;;;5013876;28;20491;-61
2024/01/22 12:26:44;;;;;;;10.10;2.77;;;9.70;99.90;;;;;;4996863;28;20481;-58
2024/01/22 12:29:20;;;;;;;10.90;3.30;;;9.70;99.90;;;;;;5011401;28;20477;-58
2024/01/22 12:31:48;;;;;;;7.43;2.57;;;9.70;99.90;;;;;;5017736;28;20509;-59
2024/01/22 12:34:17;;;;;;;7.27;3.00;;;9.70;99.90;;;;;;5013597;28;20472;-57
2024/01/22 12:36:45;;;;;;;12.10;3.00;;;9.70;99.90;;;;;;5015455;28;20573;-58
2024/01/22 12:39:20;;;;;;;10.03;3.13;;;9.70;99.90;;;;;;5008703;28;20742;-57
2024/01/22 12:41:50;;;;;;;8.97;3.33;;;9.70;99.90;;;;;;5009560;28;20482;-58
2024/01/22 12:44:18;;;;;;;7.27;2.33;;;9.70;99.90;;;;;;5007521;28;20916;-59
2024/01/22 12:46:46;;;;;;;9.10;3.47;;;9.70;99.90;;;;;;4997619;28;20474;-59
2024/01/22 12:49:15;;;;;;;8.00;2.90;;;9.70;99.90;;;;;;5009763;28;20499;-59
2024/01/22 12:51:43;;;;;;;8.33;3.33;;;9.70;99.90;;;;;;5007543;28;21012;-58
2024/01/22 12:54:14;;;;;;;10.30;2.97;;;9.70;99.90;;;;;;5016721;28;21020;-59
2024/01/22 12:56:42;;;;;;;9.47;3.30;;;9.70;99.90;;;;;;5016166;28;20494;-59
2024/01/22 12:59:11;;;;;;;10.23;2.80;;;9.70;99.90;;;;;;5012575;28;20562;-59
2024/01/22 13:01:40;;;;;;;11.53;2.60;;;9.70;99.90;;;;;;5009491;28;20486;-58
2024/01/22 13:04:08;;;;;;;15.43;4.37;;;9.70;99.90;;;;;;5012427;28;21326;-59
2024/01/22 13:06:37;;;;;;;11.97;3.10;;;9.70;99.90;;;;;;5009120;28;20471;-59